sensor_id;sensor_type;location;lat;lon;timestamp;temperature;humidity
13808;DHT22;40769;51.512;5.494;2024-02-21T00:01:39;14.60;99.90
13808;DHT22;40769;51.512;5.494;2024-02-21T00:04:05;14.50;99.90
13808;DHT22;40769;51.512;5.494;2024-02-21T00:06:31;14.40;99.90
13808;DHT22;40769;51.512;5.494;2024-02-21T00:08:57;14.30;99.90
13808;DHT22;40769;51.512;5.494;2024-02-21T00:11:23;14.10;99.90
13808;DHT22;40769;51.512;5.494;2024-02-21T00:13:51;14.10;99.90
13808;DHT22;40769;51.512;5.494;2024-02-21T00:16:17;14.00;99.90
13808;DHT22;40769;51.512;5.494;2024-02-21T00:18:46;14.20;99.90
13808;DHT22;40769;51.512;5.494;2024-02-21T00:21:11;13.90;99.90
13808;DHT22;40769;51.512;5.494;2024-02-21T00:23:46;13.80;99.90
13808;DHT22;40769;51.512;5.494;2024-02-21T00:26:14;13.80;99.90
13808;DHT22;40769;51.512;5.494;2024-02-21T00:28:40;14.10;99.90
13808;DHT22;40769;51.512;5.494;2024-02-21T00:31:06;13.70;99.90
13808;DHT22;40769;51.512;5.494;2024-02-21T00:33:31;13.60;99.90
13808;DHT22;40769;51.512;5.494;2024-02-21T00:35:57;13.60;99.90
13808;DHT22;40769;51.512;5.494;2024-02-21T00:38:22;13.60;99.90
13808;DHT22;40769;51.512;5.494;2024-02-21T00:40:48;13.60;99.90
13808;DHT22;40769;51.512;5.494;2024-02-21T00:43:14;13.50;99.90
13808;DHT22;40769;51.512;5.494;2024-02-21T00:45:40;13.50;99.90
13808;DHT22;40769;51.512;5.494;2024-02-21T00:48:10;13.60;99.90
13808;DHT22;40769;51.512;5.494;2024-02-21T00:50:35;13.70;99.90
13808;DHT22;40769;51.512;5.494;2024-02-21T00:53:03;13.70;99.90
13808;DHT22;40769;51.512;5.494;2024-02-21T00:55:28;13.80;99.90
13808;DHT22;40769;51.512;5.494;2024-02-21T00:57:56;13.80;99.90
13808;DHT22;40769;51.512;5.494;2024-02-21T01:00:22;13.90;99.90
13808;DHT22;40769;51.512;5.494;2024-02-21T01:02:47;13.80;99.90
13808;DHT22;40769;51.512;5.494;2024-02-21T01:05:13;13.80;99.90
13808;DHT22;40769;51.512;5.494;2024-02-21T01:07:39;14.00;99.90
13808;DHT22;40769;51.512;5.494;2024-02-21T01:10:05;13.60;99.90
13808;DHT22;40769;51.512;5.494;2024-02-21T01:12:31;13.50;99.90
13808;DHT22;40769;51.512;5.494;2024-02-21T01:14:56;13.60;99.90
13808;DHT22;40769;51.512;5.494;2024-02-21T01:17:22;13.50;99.90
13808;DHT22;40769;51.512;5.494;2024-02-21T01:19:48;13.60;99.90
13808;DHT22;40769;51.512;5.494;2024-02-21T01:22:13;13.70;99.90
13808;DHT22;40769;51.512;5.494;2024-02-21T01:24:40;13.70;99.90
13808;DHT22;40769;51.512;5.494;2024-02-21T01:27:05;14.20;99.90
13808;DHT22;40769;51.512;5.494;2024-02-21T01:29:31;13.80;99.90
13808;DHT22;40769;51.512;5.494;2024-02-21T01:31:57;13.80;99.90
13808;DHT22;40769;51.512;5.494;2024-02-21T01:34:22;13.70;99.90
13808;DHT22;40769;51.512;5.494;2024-02-21T01:36:48;13.70;99.90
13808;DHT22;40769;51.512;5.494;2024-02-21T01:39:13;13.70;99.90
13808;DHT22;40769;51.512;5.494;2024-02-21T01:41:39;14.50;99.90
13808;DHT22;40769;51.512;5.494;2024-02-21T01:44:04;13.80;99.90
13808;DHT22;40769;51.512;5.494;2024-02-21T01:46:30;14.10;99.90
13808;DHT22;40769;51.512;5.494;2024-02-21T01:48:57;14.30;99.90
13808;DHT22;40769;51.512;5.494;2024-02-21T01:51:26;14.00;99.90
13808;DHT22;40769;51.512;5.494;2024-02-21T01:53:53;13.90;99.90
13808;DHT22;40769;51.512;5.494;2024-02-21T01:56:21;13.90;99.90
13808;DHT22;40769;51.512;5.494;2024-02-21T01:58:48;13.90;99.90
13808;DHT22;40769;51.512;5.494;2024-02-21T02:01:14;13.80;99.90
13808;DHT22;40769;51.512;5.494;2024-02-21T02:03:40;13.90;99.90
13808;DHT22;40769;51.512;5.494;2024-02-21T02:06:06;13.90;99.90
13808;DHT22;40769;51.512;5.494;2024-02-21T02:08:34;14.00;99.90
13808;DHT22;40769;51.512;5.494;2024-02-21T02:11:00;14.10;99.90
13808;DHT22;40769;51.512;5.494;2024-02-21T02:13:26;14.10;99.90
13808;DHT22;40769;51.512;5.494;2024-02-21T02:15:52;14.10;99.90
13808;DHT22;40769;51.512;5.494;2024-02-21T02:18:19;14.10;99.90
13808;DHT22;40769;51.512;5.494;2024-02-21T02:20:45;14.10;99.90
13808;DHT22;40769;51.512;5.494;2024-02-21T02:25:46;14.00;99.90
13808;DHT22;40769;51.512;5.494;2024-02-21T02:28:15;14.00;99.90
13808;DHT22;40769;51.512;5.494;2024-02-21T02:30:41;14.00;99.90
13808;DHT22;40769;51.512;5.494;2024-02-21T02:33:07;14.00;99.90
13808;DHT22;40769;51.512;5.494;2024-02-21T02:35:32;14.00;99.90
13808;DHT22;40769;51.512;5.494;2024-02-21T02:38:00;14.00;99.90
13808;DHT22;40769;51.512;5.494;2024-02-21T02:40:26;14.20;99.90
13808;DHT22;40769;51.512;5.494;2024-02-21T02:42:51;13.80;99.90
13808;DHT22;40769;51.512;5.494;2024-02-21T02:45:20;13.80;99.90
13808;DHT22;40769;51.512;5.494;2024-02-21T02:47:47;13.80;99.90
13808;DHT22;40769;51.512;5.494;2024-02-21T02:50:13;13.80;99.90
13808;DHT22;40769;51.512;5.494;2024-02-21T02:52:39;14.10;99.90
13808;DHT22;40769;51.512;5.494;2024-02-21T02:55:05;13.90;99.90
13808;DHT22;40769;51.512;5.494;2024-02-21T02:57:31;13.80;99.90
13808;DHT22;40769;51.512;5.494;2024-02-21T02:59:57;13.80;99.90
13808;DHT22;40769;51.512;5.494;2024-02-21T03:02:23;13.60;99.90
13808;DHT22;40769;51.512;5.494;2024-02-21T03:04:49;12.70;99.90
13808;DHT22;40769;51.512;5.494;2024-02-21T03:07:15;13.60;99.90
13808;DHT22;40769;51.512;5.494;2024-02-21T03:09:41;13.50;99.90
13808;DHT22;40769;51.512;5.494;2024-02-21T03:12:10;13.60;99.90
13808;DHT22;40769;51.512;5.494;2024-02-21T03:14:36;14.20;99.90
13808;DHT22;40769;51.512;5.494;2024-02-21T03:17:02;13.80;99.90
13808;DHT22;40769;51.512;5.494;2024-02-21T03:19:28;13.80;99.90
13808;DHT22;40769;51.512;5.494;2024-02-21T03:21:54;13.90;99.90
13808;DHT22;40769;51.512;5.494;2024-02-21T03:24:20;14.00;99.90
13808;DHT22;40769;51.512;5.494;2024-02-21T03:26:46;13.90;99.90
13808;DHT22;40769;51.512;5.494;2024-02-21T03:29:14;13.80;99.90
13808;DHT22;40769;51.512;5.494;2024-02-21T03:31:40;14.10;99.90
13808;DHT22;40769;51.512;5.494;2024-02-21T03:34:06;13.80;99.90
13808;DHT22;40769;51.512;5.494;2024-02-21T03:36:32;13.80;99.90
13808;DHT22;40769;51.512;5.494;2024-02-21T03:38:58;14.00;99.90
13808;DHT22;40769;51.512;5.494;2024-02-21T03:41:23;13.80;99.90
13808;DHT22;40769;51.512;5.494;2024-02-21T03:43:51;14.40;99.90
13808;DHT22;40769;51.512;5.494;2024-02-21T03:46:17;15.10;99.90
13808;DHT22;40769;51.512;5.494;2024-02-21T03:48:42;13.90;99.90
13808;DHT22;40769;51.512;5.494;2024-02-21T03:51:08;13.90;99.90
13808;DHT22;40769;51.512;5.494;2024-02-21T03:53:33;13.90;99.90
13808;DHT22;40769;51.512;5.494;2024-02-21T03:56:03;13.90;99.90
13808;DHT22;40769;51.512;5.494;2024-02-21T03:58:30;13.90;99.90
13808;DHT22;40769;51.512;5.494;2024-02-21T04:00:55;13.90;99.90
13808;DHT22;40769;51.512;5.494;2024-02-21T04:03:21;14.00;99.90
13808;DHT22;40769;51.512;5.494;2024-02-21T04:05:47;14.00;99.90
13808;DHT22;40769;51.512;5.494;2024-02-21T04:08:14;13.90;99.90
13808;DHT22;40769;51.512;5.494;2024-02-21T04:10:40;13.80;99.90
13808;DHT22;40769;51.512;5.494;2024-02-21T04:13:06;13.80;99.90
13808;DHT22;40769;51.512;5.494;2024-02-21T04:15:32;13.80;99.90
13808;DHT22;40769;51.512;5.494;2024-02-21T04:17:58;13.80;99.90
13808;DHT22;40769;51.512;5.494;2024-02-21T04:20:24;13.90;99.90
13808;DHT22;40769;51.512;5.494;2024-02-21T04:22:49;13.90;99.90
13808;DHT22;40769;51.512;5.494;2024-02-21T04:25:15;14.00;99.90
13808;DHT22;40769;51.512;5.494;2024-02-21T04:27:41;14.00;99.90
13808;DHT22;40769;51.512;5.494;2024-02-21T04:30:07;14.10;99.90
13808;DHT22;40769;51.512;5.494;2024-02-21T04:32:33;14.10;99.90
13808;DHT22;40769;51.512;5.494;2024-02-21T04:34:59;14.10;99.90
13808;DHT22;40769;51.512;5.494;2024-02-21T04:37:25;14.10;99.90
13808;DHT22;40769;51.512;5.494;2024-02-21T04:39:50;14.10;99.90
13808;DHT22;40769;51.512;5.494;2024-02-21T04:42:16;14.10;99.90
13808;DHT22;40769;51.512;5.494;2024-02-21T04:44:42;14.10;99.90
13808;DHT22;40769;51.512;5.494;2024-02-21T04:47:08;14.00;99.90
13808;DHT22;40769;51.512;5.494;2024-02-21T04:49:34;14.00;99.90
13808;DHT22;40769;51.512;5.494;2024-02-21T04:52:00;14.00;99.90
13808;DHT22;40769;51.512;5.494;2024-02-21T04:54:26;14.10;99.90
13808;DHT22;40769;51.512;5.494;2024-02-21T04:56:52;14.10;99.90
13808;DHT22;40769;51.512;5.494;2024-02-21T04:59:17;14.10;99.90
13808;DHT22;40769;51.512;5.494;2024-02-21T05:01:43;14.20;99.90
13808;DHT22;40769;51.512;5.494;2024-02-21T05:04:09;14.30;99.90
13808;DHT22;40769;51.512;5.494;2024-02-21T05:06:41;14.40;99.90
13808;DHT22;40769;51.512;5.494;2024-02-21T05:09:08;14.40;99.90
13808;DHT22;40769;51.512;5.494;2024-02-21T05:11:34;14.40;99.90
13808;DHT22;40769;51.512;5.494;2024-02-21T05:14:00;14.40;99.90
13808;DHT22;40769;51.512;5.494;2024-02-21T05:16:26;14.40;99.90
13808;DHT22;40769;51.512;5.494;2024-02-21T05:18:51;14.40;99.90
13808;DHT22;40769;51.512;5.494;2024-02-21T05:21:17;14.40;99.90
13808;DHT22;40769;51.512;5.494;2024-02-21T05:23:43;14.40;99.90
13808;DHT22;40769;51.512;5.494;2024-02-21T05:26:08;14.40;99.90
13808;DHT22;40769;51.512;5.494;2024-02-21T05:28:34;14.50;99.90
13808;DHT22;40769;51.512;5.494;2024-02-21T05:31:00;14.50;99.90
13808;DHT22;40769;51.512;5.494;2024-02-21T05:33:26;14.70;99.90
13808;DHT22;40769;51.512;5.494;2024-02-21T05:35:51;14.70;99.90
13808;DHT22;40769;51.512;5.494;2024-02-21T05:38:17;14.80;99.90
13808;DHT22;40769;51.512;5.494;2024-02-21T05:40:44;14.90;99.90
13808;DHT22;40769;51.512;5.494;2024-02-21T05:43:10;14.90;99.90
13808;DHT22;40769;51.512;5.494;2024-02-21T05:45:36;14.90;99.90
13808;DHT22;40769;51.512;5.494;2024-02-21T05:48:03;15.00;99.90
13808;DHT22;40769;51.512;5.494;2024-02-21T05:50:29;15.10;99.90
13808;DHT22;40769;51.512;5.494;2024-02-21T05:52:55;15.10;99.90
13808;DHT22;40769;51.512;5.494;2024-02-21T05:55:26;15.20;99.90
13808;DHT22;40769;51.512;5.494;2024-02-21T05:57:53;15.10;99.90
13808;DHT22;40769;51.512;5.494;2024-02-21T06:00:19;15.80;99.90
13808;DHT22;40769;51.512;5.494;2024-02-21T06:02:45;15.20;99.90
13808;DHT22;40769;51.512;5.494;2024-02-21T06:05:10;15.20;99.90
13808;DHT22;40769;51.512;5.494;2024-02-21T06:07:36;15.20;99.90
13808;DHT22;40769;51.512;5.494;2024-02-21T06:10:02;15.20;99.90
13808;DHT22;40769;51.512;5.494;2024-02-21T06:12:28;15.10;99.90
13808;DHT22;40769;51.512;5.494;2024-02-21T06:14:54;15.20;99.90
13808;DHT22;40769;51.512;5.494;2024-02-21T06:17:19;15.20;99.90
13808;DHT22;40769;51.512;5.494;2024-02-21T06:19:45;15.10;99.90
13808;DHT22;40769;51.512;5.494;2024-02-21T06:22:11;15.20;99.90
13808;DHT22;40769;51.512;5.494;2024-02-21T06:24:37;15.20;99.90
13808;DHT22;40769;51.512;5.494;2024-02-21T06:27:04;15.10;99.90
13808;DHT22;40769;51.512;5.494;2024-02-21T06:29:31;15.10;99.90
13808;DHT22;40769;51.512;5.494;2024-02-21T06:32:00;15.10;99.90
13808;DHT22;40769;51.512;5.494;2024-02-21T06:34:26;15.10;99.90
13808;DHT22;40769;51.512;5.494;2024-02-21T06:36:51;15.10;99.90
13808;DHT22;40769;51.512;5.494;2024-02-21T06:39:17;15.10;99.90
13808;DHT22;40769;51.512;5.494;2024-02-21T06:41:43;15.10;99.90
13808;DHT22;40769;51.512;5.494;2024-02-21T06:44:09;15.10;99.90
13808;DHT22;40769;51.512;5.494;2024-02-21T06:46:35;15.20;99.90
13808;DHT22;40769;51.512;5.494;2024-02-21T06:49:01;15.20;99.90
13808;DHT22;40769;51.512;5.494;2024-02-21T06:51:28;15.20;99.90
13808;DHT22;40769;51.512;5.494;2024-02-21T06:53:54;15.20;99.90
13808;DHT22;40769;51.512;5.494;2024-02-21T06:56:26;15.20;99.90
13808;DHT22;40769;51.512;5.494;2024-02-21T06:58:55;15.20;99.90
13808;DHT22;40769;51.512;5.494;2024-02-21T07:01:21;15.20;99.90
13808;DHT22;40769;51.512;5.494;2024-02-21T07:03:46;15.70;99.90
13808;DHT22;40769;51.512;5.494;2024-02-21T07:06:12;15.20;99.90
13808;DHT22;40769;51.512;5.494;2024-02-21T07:08:38;15.20;99.90
13808;DHT22;40769;51.512;5.494;2024-02-21T07:11:04;15.20;99.90
13808;DHT22;40769;51.512;5.494;2024-02-21T07:13:32;15.10;99.90
13808;DHT22;40769;51.512;5.494;2024-02-21T07:15:57;15.20;99.90
13808;DHT22;40769;51.512;5.494;2024-02-21T07:18:23;15.20;99.90
13808;DHT22;40769;51.512;5.494;2024-02-21T07:20:52;15.20;99.90
13808;DHT22;40769;51.512;5.494;2024-02-21T07:23:18;15.30;99.90
13808;DHT22;40769;51.512;5.494;2024-02-21T07:25:45;15.40;99.90
13808;DHT22;40769;51.512;5.494;2024-02-21T07:28:11;15.40;99.90
13808;DHT22;40769;51.512;5.494;2024-02-21T07:30:37;15.60;99.90
13808;DHT22;40769;51.512;5.494;2024-02-21T07:33:02;15.50;99.90
13808;DHT22;40769;51.512;5.494;2024-02-21T07:35:28;15.60;99.90
13808;DHT22;40769;51.512;5.494;2024-02-21T07:37:54;15.60;99.90
13808;DHT22;40769;51.512;5.494;2024-02-21T07:40:20;15.70;99.90
13808;DHT22;40769;51.512;5.494;2024-02-21T07:42:48;15.70;99.90
13808;DHT22;40769;51.512;5.494;2024-02-21T07:45:14;15.70;99.90
13808;DHT22;40769;51.512;5.494;2024-02-21T07:47:40;15.60;99.90
13808;DHT22;40769;51.512;5.494;2024-02-21T07:50:06;15.60;99.90
13808;DHT22;40769;51.512;5.494;2024-02-21T07:52:32;15.50;99.90
13808;DHT22;40769;51.512;5.494;2024-02-21T07:54:58;15.50;99.90
13808;DHT22;40769;51.512;5.494;2024-02-21T07:57:23;16.40;99.90
13808;DHT22;40769;51.512;5.494;2024-02-21T07:59:49;15.50;99.90
13808;DHT22;40769;51.512;5.494;2024-02-21T08:02:15;15.50;99.90
13808;DHT22;40769;51.512;5.494;2024-02-21T08:04:41;15.40;99.90
13808;DHT22;40769;51.512;5.494;2024-02-21T08:07:07;15.40;99.90
13808;DHT22;40769;51.512;5.494;2024-02-21T08:09:32;15.40;99.90
13808;DHT22;40769;51.512;5.494;2024-02-21T08:11:58;15.40;99.90
13808;DHT22;40769;51.512;5.494;2024-02-21T08:14:24;15.40;99.90
13808;DHT22;40769;51.512;5.494;2024-02-21T08:16:50;15.40;99.90
13808;DHT22;40769;51.512;5.494;2024-02-21T08:19:18;15.50;99.90
13808;DHT22;40769;51.512;5.494;2024-02-21T08:21:44;15.40;99.90
13808;DHT22;40769;51.512;5.494;2024-02-21T08:24:15;15.40;99.90
13808;DHT22;40769;51.512;5.494;2024-02-21T08:26:44;15.30;99.90
13808;DHT22;40769;51.512;5.494;2024-02-21T08:29:13;15.70;99.90
13808;DHT22;40769;51.512;5.494;2024-02-21T08:31:38;16.60;99.90
13808;DHT22;40769;51.512;5.494;2024-02-21T08:34:04;15.80;99.90
13808;DHT22;40769;51.512;5.494;2024-02-21T08:36:35;15.50;99.90
13808;DHT22;40769;51.512;5.494;2024-02-21T08:39:02;15.50;99.90
13808;DHT22;40769;51.512;5.494;2024-02-21T08:41:31;15.50;99.90
13808;DHT22;40769;51.512;5.494;2024-02-21T08:43:57;15.60;99.90
13808;DHT22;40769;51.512;5.494;2024-02-21T08:46:23;15.70;99.90
13808;DHT22;40769;51.512;5.494;2024-02-21T08:48:53;15.60;99.90
13808;DHT22;40769;51.512;5.494;2024-02-21T08:51:19;15.60;99.90
13808;DHT22;40769;51.512;5.494;2024-02-21T08:53:48;15.60;99.90
13808;DHT22;40769;51.512;5.494;2024-02-21T08:56:14;15.60;99.90
13808;DHT22;40769;51.512;5.494;2024-02-21T08:58:43;15.60;99.90
13808;DHT22;40769;51.512;5.494;2024-02-21T09:01:08;15.60;99.90
13808;DHT22;40769;51.512;5.494;2024-02-21T09:03:39;15.70;99.90
13808;DHT22;40769;51.512;5.494;2024-02-21T09:06:05;15.50;99.90
13808;DHT22;40769;51.512;5.494;2024-02-21T09:08:32;15.30;99.90
13808;DHT22;40769;51.512;5.494;2024-02-21T09:10:57;15.60;99.90
13808;DHT22;40769;51.512;5.494;2024-02-21T09:13:24;16.10;99.90
13808;DHT22;40769;51.512;5.494;2024-02-21T09:15:49;15.50;99.90
13808;DHT22;40769;51.512;5.494;2024-02-21T09:18:18;14.10;99.90
13808;DHT22;40769;51.512;5.494;2024-02-21T09:20:44;15.30;99.90
13808;DHT22;40769;51.512;5.494;2024-02-21T09:23:10;15.20;99.90
13808;DHT22;40769;51.512;5.494;2024-02-21T09:25:36;15.10;99.90
13808;DHT22;40769;51.512;5.494;2024-02-21T09:28:02;15.00;99.90
13808;DHT22;40769;51.512;5.494;2024-02-21T09:30:28;15.00;99.90
13808;DHT22;40769;51.512;5.494;2024-02-21T09:32:54;15.00;99.90
13808;DHT22;40769;51.512;5.494;2024-02-21T09:35:20;14.90;99.90
13808;DHT22;40769;51.512;5.494;2024-02-21T09:37:48;14.80;99.90
13808;DHT22;40769;51.512;5.494;2024-02-21T09:40:15;14.80;99.90
13808;DHT22;40769;51.512;5.494;2024-02-21T09:42:42;14.80;99.90
13808;DHT22;40769;51.512;5.494;2024-02-21T09:47:58;14.80;99.90
13808;DHT22;40769;51.512;5.494;2024-02-21T09:50:27;14.90;99.90
13808;DHT22;40769;51.512;5.494;2024-02-21T09:52:54;15.20;99.90
13808;DHT22;40769;51.512;5.494;2024-02-21T09:55:21;15.00;99.90
13808;DHT22;40769;51.512;5.494;2024-02-21T09:57:47;15.20;99.90
13808;DHT22;40769;51.512;5.494;2024-02-21T10:00:15;15.10;99.90
13808;DHT22;40769;51.512;5.494;2024-02-21T10:02:48;15.20;99.90
13808;DHT22;40769;51.512;5.494;2024-02-21T10:05:14;15.30;99.90
13808;DHT22;40769;51.512;5.494;2024-02-21T10:07:40;15.30;99.90
13808;DHT22;40769;51.512;5.494;2024-02-21T10:10:06;15.40;99.90
13808;DHT22;40769;51.512;5.494;2024-02-21T10:12:32;15.50;99.90
13808;DHT22;40769;51.512;5.494;2024-02-21T10:15:05;15.50;99.90
13808;DHT22;40769;51.512;5.494;2024-02-21T10:17:35;15.50;99.90
13808;DHT22;40769;51.512;5.494;2024-02-21T10:20:11;15.50;99.90
13808;DHT22;40769;51.512;5.494;2024-02-21T10:22:38;15.60;99.90
13808;DHT22;40769;51.512;5.494;2024-02-21T10:25:09;15.60;99.90
13808;DHT22;40769;51.512;5.494;2024-02-21T10:27:36;15.60;99.90
13808;DHT22;40769;51.512;5.494;2024-02-21T10:30:01;15.60;99.90
13808;DHT22;40769;51.512;5.494;2024-02-21T10:32:27;15.60;99.90
13808;DHT22;40769;51.512;5.494;2024-02-21T10:35:01;15.60;99.90
13808;DHT22;40769;51.512;5.494;2024-02-21T10:37:29;15.60;99.90
13808;DHT22;40769;51.512;5.494;2024-02-21T10:39:54;15.40;99.90
13808;DHT22;40769;51.512;5.494;2024-02-21T10:42:21;15.60;99.90
13808;DHT22;40769;51.512;5.494;2024-02-21T10:44:50;15.90;99.90
13808;DHT22;40769;51.512;5.494;2024-02-21T10:47:17;15.90;99.90
13808;DHT22;40769;51.512;5.494;2024-02-21T10:49:50;15.90;99.90
13808;DHT22;40769;51.512;5.494;2024-02-21T10:52:36;16.00;99.90
13808;DHT22;40769;51.512;5.494;2024-02-21T10:55:24;16.00;99.90
13808;DHT22;40769;51.512;5.494;2024-02-21T10:57:52;16.10;99.90
13808;DHT22;40769;51.512;5.494;2024-02-21T11:00:18;16.10;99.90
13808;DHT22;40769;51.512;5.494;2024-02-21T11:02:47;16.10;99.90
13808;DHT22;40769;51.512;5.494;2024-02-21T11:05:15;16.20;99.90
13808;DHT22;40769;51.512;5.494;2024-02-21T11:07:42;16.10;99.90
13808;DHT22;40769;51.512;5.494;2024-02-21T11:10:22;16.40;99.90
13808;DHT22;40769;51.512;5.494;2024-02-21T11:12:49;16.20;99.90
13808;DHT22;40769;51.512;5.494;2024-02-21T11:15:15;15.00;99.90
13808;DHT22;40769;51.512;5.494;2024-02-21T11:17:40;17.20;99.90
13808;DHT22;40769;51.512;5.494;2024-02-21T11:20:15;16.20;99.90
13808;DHT22;40769;51.512;5.494;2024-02-21T11:22:44;16.10;99.90
13808;DHT22;40769;51.512;5.494;2024-02-21T11:25:10;16.10;99.90
13808;DHT22;40769;51.512;5.494;2024-02-21T11:27:37;16.10;99.90
13808;DHT22;40769;51.512;5.494;2024-02-21T11:30:04;16.00;99.90
13808;DHT22;40769;51.512;5.494;2024-02-21T11:32:31;16.00;99.90
13808;DHT22;40769;51.512;5.494;2024-02-21T11:34:58;16.10;99.90
13808;DHT22;40769;51.512;5.494;2024-02-21T11:37:28;16.40;99.90
13808;DHT22;40769;51.512;5.494;2024-02-21T11:39:55;16.30;99.90
13808;DHT22;40769;51.512;5.494;2024-02-21T11:42:21;16.30;99.90
13808;DHT22;40769;51.512;5.494;2024-02-21T11:44:46;16.30;99.90
13808;DHT22;40769;51.512;5.494;2024-02-21T11:47:14;16.40;99.90
13808;DHT22;40769;51.512;5.494;2024-02-21T11:49:45;16.40;99.90
13808;DHT22;40769;51.512;5.494;2024-02-21T11:52:13;16.60;99.90
13808;DHT22;40769;51.512;5.494;2024-02-21T11:54:41;16.60;99.90
13808;DHT22;40769;51.512;5.494;2024-02-21T11:57:07;16.70;99.90
13808;DHT22;40769;51.512;5.494;2024-02-21T11:59:33;16.60;99.90
13808;DHT22;40769;51.512;5.494;2024-02-21T12:02:00;16.60;99.90
13808;DHT22;40769;51.512;5.494;2024-02-21T12:04:26;16.60;99.90
13808;DHT22;40769;51.512;5.494;2024-02-21T12:06:56;16.60;99.90
13808;DHT22;40769;51.512;5.494;2024-02-21T12:09:23;16.80;99.90
13808;DHT22;40769;51.512;5.494;2024-02-21T12:12:06;16.70;99.90
13808;DHT22;40769;51.512;5.494;2024-02-21T12:14:33;16.60;99.90
13808;DHT22;40769;51.512;5.494;2024-02-21T12:17:00;17.60;99.90
13808;DHT22;40769;51.512;5.494;2024-02-21T12:19:29;16.80;99.90
13808;DHT22;40769;51.512;5.494;2024-02-21T12:21:54;16.90;99.90
13808;DHT22;40769;51.512;5.494;2024-02-21T12:24:27;16.80;99.90
13808;DHT22;40769;51.512;5.494;2024-02-21T12:26:56;16.90;99.90
13808;DHT22;40769;51.512;5.494;2024-02-21T12:29:24;17.00;99.90
13808;DHT22;40769;51.512;5.494;2024-02-21T12:31:50;17.20;99.90
13808;DHT22;40769;51.512;5.494;2024-02-21T12:34:16;17.00;99.90
13808;DHT22;40769;51.512;5.494;2024-02-21T12:36:44;17.00;99.90
13808;DHT22;40769;51.512;5.494;2024-02-21T12:39:10;16.90;99.90
13808;DHT22;40769;51.512;5.494;2024-02-21T12:41:37;16.80;99.90
13808;DHT22;40769;51.512;5.494;2024-02-21T12:44:08;16.80;99.90
13808;DHT22;40769;51.512;5.494;2024-02-21T12:46:35;16.80;99.90
13808;DHT22;40769;51.512;5.494;2024-02-21T12:49:01;16.70;99.90
13808;DHT22;40769;51.512;5.494;2024-02-21T12:51:28;17.30;99.90
13808;DHT22;40769;51.512;5.494;2024-02-21T12:53:54;16.50;99.90
13808;DHT22;40769;51.512;5.494;2024-02-21T12:56:20;16.40;99.90
13808;DHT22;40769;51.512;5.494;2024-02-21T12:58:45;16.30;99.90
13808;DHT22;40769;51.512;5.494;2024-02-21T13:01:11;16.30;99.90
13808;DHT22;40769;51.512;5.494;2024-02-21T13:03:37;16.20;99.90
13808;DHT22;40769;51.512;5.494;2024-02-21T13:06:03;16.10;99.90
13808;DHT22;40769;51.512;5.494;2024-02-21T13:08:29;16.10;99.90
13808;DHT22;40769;51.512;5.494;2024-02-21T13:10:55;16.10;99.90
13808;DHT22;40769;51.512;5.494;2024-02-21T13:13:21;16.00;99.90
13808;DHT22;40769;51.512;5.494;2024-02-21T13:15:46;16.00;99.90
13808;DHT22;40769;51.512;5.494;2024-02-21T13:18:12;15.90;99.90
13808;DHT22;40769;51.512;5.494;2024-02-21T13:20:38;16.20;99.90
13808;DHT22;40769;51.512;5.494;2024-02-21T13:23:04;15.90;99.90
13808;DHT22;40769;51.512;5.494;2024-02-21T13:25:29;16.00;99.90
13808;DHT22;40769;51.512;5.494;2024-02-21T13:27:55;16.10;99.90
13808;DHT22;40769;51.512;5.494;2024-02-21T13:30:22;16.10;99.90
13808;DHT22;40769;51.512;5.494;2024-02-21T13:32:47;16.10;99.90
13808;DHT22;40769;51.512;5.494;2024-02-21T13:35:14;16.10;99.90
13808;DHT22;40769;51.512;5.494;2024-02-21T13:37:40;16.10;99.90
13808;DHT22;40769;51.512;5.494;2024-02-21T13:40:06;16.10;99.90
13808;DHT22;40769;51.512;5.494;2024-02-21T13:42:34;16.10;99.90
13808;DHT22;40769;51.512;5.494;2024-02-21T13:45:00;16.00;99.90
13808;DHT22;40769;51.512;5.494;2024-02-21T13:47:26;16.00;99.90
13808;DHT22;40769;51.512;5.494;2024-02-21T13:49:52;16.00;99.90
13808;DHT22;40769;51.512;5.494;2024-02-21T13:52:17;16.00;99.90
13808;DHT22;40769;51.512;5.494;2024-02-21T13:54:46;16.00;99.90
13808;DHT22;40769;51.512;5.494;2024-02-21T13:57:12;15.90;99.90
13808;DHT22;40769;51.512;5.494;2024-02-21T13:59:38;15.80;99.90
13808;DHT22;40769;51.512;5.494;2024-02-21T14:02:05;15.80;99.90
13808;DHT22;40769;51.512;5.494;2024-02-21T14:04:34;15.80;99.90
13808;DHT22;40769;51.512;5.494;2024-02-21T14:06:59;15.80;99.90
13808;DHT22;40769;51.512;5.494;2024-02-21T14:09:26;15.60;99.90
13808;DHT22;40769;51.512;5.494;2024-02-21T14:11:52;15.60;99.90
13808;DHT22;40769;51.512;5.494;2024-02-21T14:14:18;15.50;99.90
13808;DHT22;40769;51.512;5.494;2024-02-21T14:16:44;15.50;99.90
13808;DHT22;40769;51.512;5.494;2024-02-21T14:19:09;15.30;99.90
13808;DHT22;40769;51.512;5.494;2024-02-21T14:21:37;15.30;99.90
13808;DHT22;40769;51.512;5.494;2024-02-21T14:24:05;15.20;99.90
13808;DHT22;40769;51.512;5.494;2024-02-21T14:26:31;15.30;99.90
13808;DHT22;40769;51.512;5.494;2024-02-21T14:28:57;15.20;99.90
13808;DHT22;40769;51.512;5.494;2024-02-21T14:31:24;15.30;99.90
13808;DHT22;40769;51.512;5.494;2024-02-21T14:33:50;15.30;99.90
13808;DHT22;40769;51.512;5.494;2024-02-21T14:36:16;15.40;99.90
13808;DHT22;40769;51.512;5.494;2024-02-21T14:38:43;15.70;99.90
13808;DHT22;40769;51.512;5.494;2024-02-21T14:41:09;15.60;99.90
13808;DHT22;40769;51.512;5.494;2024-02-21T14:43:38;15.60;99.90
13808;DHT22;40769;51.512;5.494;2024-02-21T14:46:04;15.60;99.90
13808;DHT22;40769;51.512;5.494;2024-02-21T14:48:31;15.60;99.90
13808;DHT22;40769;51.512;5.494;2024-02-21T14:50:58;15.70;99.90
13808;DHT22;40769;51.512;5.494;2024-02-21T14:53:24;15.70;99.90
13808;DHT22;40769;51.512;5.494;2024-02-21T14:55:50;15.70;99.90
13808;DHT22;40769;51.512;5.494;2024-02-21T14:58:16;15.70;99.90
13808;DHT22;40769;51.512;5.494;2024-02-21T15:00:43;15.70;99.90
13808;DHT22;40769;51.512;5.494;2024-02-21T15:03:09;15.70;99.90
13808;DHT22;40769;51.512;5.494;2024-02-21T15:05:41;15.60;99.90
13808;DHT22;40769;51.512;5.494;2024-02-21T15:08:07;15.50;99.90
13808;DHT22;40769;51.512;5.494;2024-02-21T15:10:37;15.40;99.90
13808;DHT22;40769;51.512;5.494;2024-02-21T15:13:03;15.30;99.90
13808;DHT22;40769;51.512;5.494;2024-02-21T15:15:29;15.00;99.90
13808;DHT22;40769;51.512;5.494;2024-02-21T15:17:54;15.10;99.90
13808;DHT22;40769;51.512;5.494;2024-02-21T15:20:20;14.90;99.90
13808;DHT22;40769;51.512;5.494;2024-02-21T15:22:46;14.80;99.90
13808;DHT22;40769;51.512;5.494;2024-02-21T15:25:11;14.80;99.90
13808;DHT22;40769;51.512;5.494;2024-02-21T15:27:44;14.80;99.90
13808;DHT22;40769;51.512;5.494;2024-02-21T15:30:11;14.70;99.90
13808;DHT22;40769;51.512;5.494;2024-02-21T15:32:38;14.60;99.90